Search for airport 
image banner adimage banner adimage banner ad
image banner ad

CA57 - Blake Sky Park

Located in Vacaville, United States

ICAO - CA57, IATA -

Data provided by Airmate  

General information

Coordinates: N38°27'30" W122°2'44"
Elevation is 53 feet MSL.
Magnetic variation is 16° East
View others Airports in California

Operational data

Special qualification required
Current time UTC:
Current local time:
Weather at : KVCB - Nut Tree ( 12 km )
METAR: KVCB 292153Z AUTO 21008KT 10SM CLR 39/12 A2984 RMK AO2 SLP101 T03940122
View NOTAMs / SUP AIP / TFR affecting this airport [VIEW]
Communications frequencies: [VIEW]

Runways:

Airport contact information

Address: Vacaville United States

Satellite view of CA57